Crew | Aerofun Virtual



 METAR AND TAF INFORMATION
METAR FOR EFJO
ADDS - METARS form results

(0813 UTC 22 July 2019)
Data provider http://aviationweather.gov/metar/data/
 
METAR text: EFJO 220750Z VRB02KT CAVOK 24/09 Q1016
Conditions at: EFJO (JOENSUU , FI) observed 0750 UTC 22 July 2019
Temperature: 24.0°C (75°F)
Dewpoint: 9.0°C (48°F) [RH = 38%]
Pressure (altimeter): 30.00 inches Hg (1016.0 mb)
Winds: variable direction winds at 2 MPH (2 knots; 1.0 m/s)
Visibility: 6 or more miles (10+ km)
Ceiling: ceiling and visibility are OK
Clouds: unknown
Weather: no significant weather observed at this time

METAR text: EFJO 220720Z VRB02KT CAVOK 23/10 Q1016
Conditions at: EFJO (JOENSUU , FI) observed 0720 UTC 22 July 2019
Temperature: 23.0°C (73°F)
Dewpoint: 10.0°C (50°F) [RH = 44%]
Pressure (altimeter): 30.00 inches Hg (1016.0 mb)
Winds: variable direction winds at 2 MPH (2 knots; 1.0 m/s)
Visibility: 6 or more miles (10+ km)
Ceiling: ceiling and visibility are OK
Clouds: unknown
Weather: no significant weather observed at this time

Forecast for: EFJO (JOENSUU , FI)
Text: TAF EFJO 220527Z 2206/2215 09004KT CAVOK
Forecast period: 0600 to 1500 UTC 22 July 2019
Forecast type: FROM: standard forecast or significant change
Winds: from the E (90 degrees) at 5 MPH (4 knots; 2.1 m/s)
Visibility: 6 or more miles 10+ km)
Ceiling: unknown
Clouds: missing
Weather: NSW  (no significant weather)
Text: TEMPO 2210/2215 -SHRA FEW050CB
Forecast period: 1000 to 1500 UTC 22 July 2019
Forecast type: TEMPORARY: The following changes expected for less than half the time period
Visibility: missing
Ceiling: at least 12,000 feet AGL
Clouds: few clouds at 5000 feet AGL
Weather: -SHRA  (light rain showers)

 AIRPORT MAP

 RUNWAY INFORMATION
Runway 10 Runway length 8202 ft Runway width 171 ft
Runway elevation 398 ft Runway displaced threshold 0 ft Runway heading 110
Runway 28 Runway length 8202 ft Runway width 171 ft
Runway elevation 364 ft Runway displaced threshold 0 ft Runway heading 290
Runway 17 Runway length 3937 ft Runway width 98 ft
Runway elevation 391 ft Runway displaced threshold 0 ft Runway heading 181
Runway 35 Runway length 3937 ft Runway width 98 ft
Runway elevation 371 ft Runway displaced threshold 0 ft Runway heading 1

 AIRPORT FREQUENCIES
Type ATIS Name ATIS Frequency 115.7 MHZ
Type TWR Name TWR Frequency 120.9 MHZ

 AIRPORT NEAR NAVIGATION AIDS
Type VOR-DME Name Josie Frequency 115700 KHZ
Type NDB Name Joensuu Frequency 325 KHZ